sensor_id;sensor_type;location;lat;lon;timestamp;pressure;altitude;pressure_sealevel;temperature;humidity
76448;BME280;65284;51.040;13.722;2023-03-01T00:02:02;101344.00;;;-2.41;80.01
76448;BME280;65284;51.040;13.722;2023-03-01T00:04:28;101347.78;;;-2.51;80.54
76448;BME280;65284;51.040;13.722;2023-03-01T00:06:55;101341.94;;;-2.59;80.74
76448;BME280;65284;51.040;13.722;2023-03-01T00:09:21;101349.19;;;-2.70;79.85
76448;BME280;65284;51.040;13.722;2023-03-01T00:11:48;101344.81;;;-2.70;80.42
76448;BME280;65284;51.040;13.722;2023-03-01T00:14:15;101345.75;;;-2.72;80.31
76448;BME280;65284;51.040;13.722;2023-03-01T00:16:45;101339.59;;;-2.68;79.92
76448;BME280;65284;51.040;13.722;2023-03-01T00:19:16;101344.41;;;-2.86;80.44
76448;BME280;65284;51.040;13.722;2023-03-01T00:21:43;101340.16;;;-2.90;80.46
76448;BME280;65284;51.040;13.722;2023-03-01T00:24:10;101337.66;;;-2.93;80.54
76448;BME280;65284;51.040;13.722;2023-03-01T00:26:36;101341.09;;;-2.91;80.14
76448;BME280;65284;51.040;13.722;2023-03-01T00:29:03;101335.88;;;-2.91;80.21
76448;BME280;65284;51.040;13.722;2023-03-01T00:31:31;101334.97;;;-2.90;80.69
76448;BME280;65284;51.040;13.722;2023-03-01T00:34:01;101332.47;;;-2.93;80.47
76448;BME280;65284;51.040;13.722;2023-03-01T00:36:30;101335.75;;;-2.86;80.98
76448;BME280;65284;51.040;13.722;2023-03-01T00:38:57;101333.28;;;-2.91;81.67
76448;BME280;65284;51.040;13.722;2023-03-01T00:41:24;101335.97;;;-2.94;81.20
76448;BME280;65284;51.040;13.722;2023-03-01T00:43:53;101327.59;;;-3.05;80.12
76448;BME280;65284;51.040;13.722;2023-03-01T00:46:21;101323.78;;;-2.92;80.36
76448;BME280;65284;51.040;13.722;2023-03-01T00:48:49;101323.88;;;-2.95;80.94
76448;BME280;65284;51.040;13.722;2023-03-01T00:51:21;101313.66;;;-3.01;81.13
76448;BME280;65284;51.040;13.722;2023-03-01T00:53:50;101311.00;;;-3.00;81.56
76448;BME280;65284;51.040;13.722;2023-03-01T00:56:17;101311.22;;;-3.07;80.99
76448;BME280;65284;51.040;13.722;2023-03-01T00:58:44;101312.44;;;-3.21;80.56
76448;BME280;65284;51.040;13.722;2023-03-01T01:01:13;101313.03;;;-3.11;80.37
76448;BME280;65284;51.040;13.722;2023-03-01T01:03:51;101315.59;;;-3.09;80.32
76448;BME280;65284;51.040;13.722;2023-03-01T01:06:24;101318.22;;;-3.11;80.49
76448;BME280;65284;51.040;13.722;2023-03-01T01:08:52;101314.66;;;-3.07;80.48
76448;BME280;65284;51.040;13.722;2023-03-01T01:11:20;101306.72;;;-3.02;80.38
76448;BME280;65284;51.040;13.722;2023-03-01T01:13:47;101308.63;;;-3.07;80.84
76448;BME280;65284;51.040;13.722;2023-03-01T01:16:16;101317.38;;;-3.11;81.45
76448;BME280;65284;51.040;13.722;2023-03-01T01:18:43;101320.72;;;-3.06;80.57
76448;BME280;65284;51.040;13.722;2023-03-01T01:21:13;101308.72;;;-3.10;80.51
76448;BME280;65284;51.040;13.722;2023-03-01T01:23:41;101302.13;;;-3.24;80.52
76448;BME280;65284;51.040;13.722;2023-03-01T01:26:11;101299.59;;;-3.25;80.50
76448;BME280;65284;51.040;13.722;2023-03-01T01:28:38;101310.09;;;-3.30;80.49
76448;BME280;65284;51.040;13.722;2023-03-01T01:31:05;101295.94;;;-3.20;80.77
76448;BME280;65284;51.040;13.722;2023-03-01T01:33:32;101297.59;;;-3.15;80.65
76448;BME280;65284;51.040;13.722;2023-03-01T01:35:59;101291.78;;;-3.25;80.65
76448;BME280;65284;51.040;13.722;2023-03-01T01:38:25;101295.72;;;-3.43;80.34
76448;BME280;65284;51.040;13.722;2023-03-01T01:40:52;101293.06;;;-3.40;80.98
76448;BME280;65284;51.040;13.722;2023-03-01T01:43:34;101293.94;;;-3.41;81.26
76448;BME280;65284;51.040;13.722;2023-03-01T01:46:01;101289.75;;;-3.47;81.34
76448;BME280;65284;51.040;13.722;2023-03-01T01:48:36;101294.84;;;-3.44;81.23
76448;BME280;65284;51.040;13.722;2023-03-01T01:51:11;101295.78;;;-3.46;81.28
76448;BME280;65284;51.040;13.722;2023-03-01T01:53:39;101297.50;;;-3.45;81.52
76448;BME280;65284;51.040;13.722;2023-03-01T01:56:08;101293.25;;;-3.49;81.46
76448;BME280;65284;51.040;13.722;2023-03-01T01:58:38;101296.19;;;-3.61;81.31
76448;BME280;65284;51.040;13.722;2023-03-01T02:01:05;101297.19;;;-3.67;81.39
76448;BME280;65284;51.040;13.722;2023-03-01T02:03:33;101299.00;;;-3.71;81.50
76448;BME280;65284;51.040;13.722;2023-03-01T02:06:06;101284.19;;;-3.66;82.09
76448;BME280;65284;51.040;13.722;2023-03-01T02:08:39;101287.53;;;-3.62;81.36
76448;BME280;65284;51.040;13.722;2023-03-01T02:11:08;101284.09;;;-3.62;81.22
76448;BME280;65284;51.040;13.722;2023-03-01T02:13:35;101283.28;;;-3.64;81.37
76448;BME280;65284;51.040;13.722;2023-03-01T02:16:13;101289.53;;;-3.72;81.36
76448;BME280;65284;51.040;13.722;2023-03-01T02:18:41;101281.63;;;-3.67;81.54
76448;BME280;65284;51.040;13.722;2023-03-01T02:21:35;101275.66;;;-3.71;81.45
76448;BME280;65284;51.040;13.722;2023-03-01T02:24:15;101262.66;;;-3.69;81.89
76448;BME280;65284;51.040;13.722;2023-03-01T02:26:48;101268.06;;;-3.78;81.98
76448;BME280;65284;51.040;13.722;2023-03-01T02:29:16;101259.38;;;-3.77;81.55
76448;BME280;65284;51.040;13.722;2023-03-01T02:31:42;101251.72;;;-3.82;81.34
76448;BME280;65284;51.040;13.722;2023-03-01T02:34:13;101250.25;;;-3.92;81.70
76448;BME280;65284;51.040;13.722;2023-03-01T02:36:45;101251.16;;;-3.93;82.28
76448;BME280;65284;51.040;13.722;2023-03-01T02:39:15;101254.75;;;-4.00;81.54
76448;BME280;65284;51.040;13.722;2023-03-01T02:41:46;101247.69;;;-3.94;81.64
76448;BME280;65284;51.040;13.722;2023-03-01T02:44:14;101252.88;;;-3.94;81.35
76448;BME280;65284;51.040;13.722;2023-03-01T02:47:01;101252.84;;;-3.92;80.98
76448;BME280;65284;51.040;13.722;2023-03-01T02:49:35;101250.31;;;-3.95;81.91
76448;BME280;65284;51.040;13.722;2023-03-01T02:52:23;101247.50;;;-3.86;81.31
76448;BME280;65284;51.040;13.722;2023-03-01T02:54:59;101246.91;;;-3.97;81.46
76448;BME280;65284;51.040;13.722;2023-03-01T02:57:28;101247.91;;;-4.03;81.31
76448;BME280;65284;51.040;13.722;2023-03-01T02:59:56;101238.50;;;-4.07;82.11
76448;BME280;65284;51.040;13.722;2023-03-01T03:02:26;101245.59;;;-4.14;81.84
76448;BME280;65284;51.040;13.722;2023-03-01T03:05:16;101241.13;;;-4.08;81.03
76448;BME280;65284;51.040;13.722;2023-03-01T03:07:46;101240.41;;;-4.14;80.97
76448;BME280;65284;51.040;13.722;2023-03-01T03:10:26;101242.94;;;-4.12;81.30
76448;BME280;65284;51.040;13.722;2023-03-01T03:12:59;101236.00;;;-4.12;81.61
76448;BME280;65284;51.040;13.722;2023-03-01T03:15:26;101238.97;;;-4.27;81.55
76448;BME280;65284;51.040;13.722;2023-03-01T03:17:53;101241.56;;;-4.27;81.58
76448;BME280;65284;51.040;13.722;2023-03-01T03:20:22;101240.69;;;-4.26;81.72
76448;BME280;65284;51.040;13.722;2023-03-01T03:22:51;101246.81;;;-4.28;81.69
76448;BME280;65284;51.040;13.722;2023-03-01T03:25:18;101235.50;;;-4.26;81.94
76448;BME280;65284;51.040;13.722;2023-03-01T03:27:47;101235.56;;;-4.29;81.36
76448;BME280;65284;51.040;13.722;2023-03-01T03:30:18;101231.94;;;-4.22;82.07
76448;BME280;65284;51.040;13.722;2023-03-01T03:32:46;101234.41;;;-4.17;82.94
76448;BME280;65284;51.040;13.722;2023-03-01T03:35:22;101230.09;;;-4.17;82.34
76448;BME280;65284;51.040;13.722;2023-03-01T03:37:49;101228.59;;;-4.27;82.05
76448;BME280;65284;51.040;13.722;2023-03-01T03:40:39;101227.44;;;-4.14;81.83
76448;BME280;65284;51.040;13.722;2023-03-01T03:43:11;101214.63;;;-4.20;82.41
76448;BME280;65284;51.040;13.722;2023-03-01T03:45:38;101218.94;;;-4.20;81.53
76448;BME280;65284;51.040;13.722;2023-03-01T03:48:06;101223.16;;;-4.16;81.01
76448;BME280;65284;51.040;13.722;2023-03-01T03:50:33;101221.34;;;-4.13;81.26
76448;BME280;65284;51.040;13.722;2023-03-01T03:53:00;101214.53;;;-4.17;80.49
76448;BME280;65284;51.040;13.722;2023-03-01T03:55:27;101218.22;;;-4.27;81.52
76448;BME280;65284;51.040;13.722;2023-03-01T03:57:58;101220.22;;;-4.38;81.62
76448;BME280;65284;51.040;13.722;2023-03-01T04:00:28;101223.56;;;-4.33;81.51
76448;BME280;65284;51.040;13.722;2023-03-01T04:02:54;101218.44;;;-4.36;80.97
76448;BME280;65284;51.040;13.722;2023-03-01T04:05:22;101222.78;;;-4.37;81.66
76448;BME280;65284;51.040;13.722;2023-03-01T04:07:49;101230.53;;;-4.35;81.21
76448;BME280;65284;51.040;13.722;2023-03-01T04:10:33;101240.88;;;-4.35;80.92
76448;BME280;65284;51.040;13.722;2023-03-01T04:13:00;101246.19;;;-4.40;81.45
76448;BME280;65284;51.040;13.722;2023-03-01T04:15:27;101246.22;;;-4.41;80.64
76448;BME280;65284;51.040;13.722;2023-03-01T04:17:55;101227.28;;;-4.43;80.77
76448;BME280;65284;51.040;13.722;2023-03-01T04:20:24;101239.47;;;-4.48;80.72
76448;BME280;65284;51.040;13.722;2023-03-01T04:22:56;101235.16;;;-4.48;81.00
76448;BME280;65284;51.040;13.722;2023-03-01T04:25:26;101231.72;;;-4.48;80.74
76448;BME280;65284;51.040;13.722;2023-03-01T04:27:52;101227.41;;;-4.49;81.00
76448;BME280;65284;51.040;13.722;2023-03-01T04:30:19;101227.50;;;-4.52;80.97
76448;BME280;65284;51.040;13.722;2023-03-01T04:32:45;101229.25;;;-4.54;80.98
76448;BME280;65284;51.040;13.722;2023-03-01T04:35:11;101226.66;;;-4.54;80.77
76448;BME280;65284;51.040;13.722;2023-03-01T04:37:38;101226.72;;;-4.58;81.28
76448;BME280;65284;51.040;13.722;2023-03-01T04:40:05;101219.94;;;-4.63;81.25
76448;BME280;65284;51.040;13.722;2023-03-01T04:42:42;101227.81;;;-4.68;82.22
76448;BME280;65284;51.040;13.722;2023-03-01T04:45:09;101225.34;;;-4.74;81.47
76448;BME280;65284;51.040;13.722;2023-03-01T04:47:43;101223.53;;;-4.69;82.27
76448;BME280;65284;51.040;13.722;2023-03-01T04:50:11;101229.47;;;-4.64;82.20
76448;BME280;65284;51.040;13.722;2023-03-01T04:52:38;101227.69;;;-4.62;81.52
76448;BME280;65284;51.040;13.722;2023-03-01T04:55:05;101233.06;;;-4.71;81.65
76448;BME280;65284;51.040;13.722;2023-03-01T04:57:32;101222.78;;;-4.74;81.38
76448;BME280;65284;51.040;13.722;2023-03-01T04:59:58;101230.59;;;-4.75;81.42
76448;BME280;65284;51.040;13.722;2023-03-01T05:02:25;101226.31;;;-4.78;81.36
76448;BME280;65284;51.040;13.722;2023-03-01T05:04:51;101230.72;;;-4.82;81.38
76448;BME280;65284;51.040;13.722;2023-03-01T05:07:18;101229.75;;;-4.76;81.57
76448;BME280;65284;51.040;13.722;2023-03-01T05:09:46;101227.16;;;-4.76;81.82
76448;BME280;65284;51.040;13.722;2023-03-01T05:12:13;101224.34;;;-4.67;81.50
76448;BME280;65284;51.040;13.722;2023-03-01T05:14:40;101227.94;;;-4.74;81.67
76448;BME280;65284;51.040;13.722;2023-03-01T05:17:07;101225.47;;;-4.78;82.19
76448;BME280;65284;51.040;13.722;2023-03-01T05:19:34;101223.88;;;-4.86;82.18
76448;BME280;65284;51.040;13.722;2023-03-01T05:22:00;101221.22;;;-4.81;82.31
76448;BME280;65284;51.040;13.722;2023-03-01T05:24:31;101215.97;;;-4.78;81.42
76448;BME280;65284;51.040;13.722;2023-03-01T05:26:58;101221.34;;;-4.87;81.12
76448;BME280;65284;51.040;13.722;2023-03-01T05:29:28;101214.41;;;-4.87;81.76
76448;BME280;65284;51.040;13.722;2023-03-01T05:31:57;101212.69;;;-4.86;81.86
76448;BME280;65284;51.040;13.722;2023-03-01T05:34:29;101219.75;;;-4.94;81.62
76448;BME280;65284;51.040;13.722;2023-03-01T05:36:56;101215.50;;;-4.97;81.84
76448;BME280;65284;51.040;13.722;2023-03-01T05:39:25;101211.13;;;-4.93;81.59
76448;BME280;65284;51.040;13.722;2023-03-01T05:41:57;101209.38;;;-4.94;82.21
76448;BME280;65284;51.040;13.722;2023-03-01T05:44:24;101209.38;;;-4.94;81.70
76448;BME280;65284;51.040;13.722;2023-03-01T05:46:51;101212.94;;;-4.98;81.61
76448;BME280;65284;51.040;13.722;2023-03-01T05:49:18;101209.47;;;-4.97;81.87
76448;BME280;65284;51.040;13.722;2023-03-01T05:51:49;101214.56;;;-4.94;81.81
76448;BME280;65284;51.040;13.722;2023-03-01T05:54:17;101211.19;;;-4.96;81.79
76448;BME280;65284;51.040;13.722;2023-03-01T05:56:44;101216.44;;;-4.99;81.76
76448;BME280;65284;51.040;13.722;2023-03-01T05:59:11;101216.44;;;-4.99;82.43
76448;BME280;65284;51.040;13.722;2023-03-01T06:01:37;101220.88;;;-5.06;81.84
76448;BME280;65284;51.040;13.722;2023-03-01T06:04:04;101221.69;;;-5.03;81.37
76448;BME280;65284;51.040;13.722;2023-03-01T06:06:35;101226.84;;;-5.03;81.64
76448;BME280;65284;51.040;13.722;2023-03-01T06:09:05;101221.75;;;-5.07;81.87
76448;BME280;65284;51.040;13.722;2023-03-01T06:11:34;101230.94;;;-4.53;83.44
76448;BME280;65284;51.040;13.722;2023-03-01T06:14:01;101224.47;;;-4.36;83.11
76448;BME280;65284;51.040;13.722;2023-03-01T06:16:27;101214.63;;;-4.20;83.14
76448;BME280;65284;51.040;13.722;2023-03-01T06:18:54;101219.44;;;-4.40;81.43
76448;BME280;65284;51.040;13.722;2023-03-01T06:21:20;101219.91;;;-4.62;81.23
76448;BME280;65284;51.040;13.722;2023-03-01T06:23:47;101221.47;;;-4.54;81.03
76448;BME280;65284;51.040;13.722;2023-03-01T06:26:13;101219.88;;;-4.60;81.16
76448;BME280;65284;51.040;13.722;2023-03-01T06:28:39;101228.59;;;-4.27;81.07
76448;BME280;65284;51.040;13.722;2023-03-01T06:31:06;101229.47;;;-4.64;80.90
76448;BME280;65284;51.040;13.722;2023-03-01T06:33:35;101234.19;;;-4.44;82.46
76448;BME280;65284;51.040;13.722;2023-03-01T06:36:03;101226.97;;;-4.31;82.51
76448;BME280;65284;51.040;13.722;2023-03-01T06:38:30;101237.50;;;-4.37;81.97
76448;BME280;65284;51.040;13.722;2023-03-01T06:40:56;101230.53;;;-4.35;81.82
76448;BME280;65284;51.040;13.722;2023-03-01T06:43:23;101232.91;;;-4.26;81.49
76448;BME280;65284;51.040;13.722;2023-03-01T06:45:50;101226.28;;;-4.38;80.92
76448;BME280;65284;51.040;13.722;2023-03-01T06:48:17;101236.06;;;-4.50;80.14
76448;BME280;65284;51.040;13.722;2023-03-01T06:50:43;101236.91;;;-4.50;80.08
76448;BME280;65284;51.040;13.722;2023-03-01T06:53:10;101241.84;;;-4.38;80.38
76448;BME280;65284;51.040;13.722;2023-03-01T06:55:36;101237.72;;;-4.46;80.32
76448;BME280;65284;51.040;13.722;2023-03-01T06:58:03;101238.28;;;-4.33;80.87
76448;BME280;65284;51.040;13.722;2023-03-01T07:00:30;101236.75;;;-4.42;80.43
76448;BME280;65284;51.040;13.722;2023-03-01T07:03:01;101237.50;;;-4.37;80.00
76448;BME280;65284;51.040;13.722;2023-03-01T07:05:29;101237.50;;;-4.37;80.56
76448;BME280;65284;51.040;13.722;2023-03-01T07:07:56;101230.53;;;-4.35;80.65
76448;BME280;65284;51.040;13.722;2023-03-01T07:10:23;101225.41;;;-4.38;80.31
76448;BME280;65284;51.040;13.722;2023-03-01T07:12:49;101229.38;;;-4.23;80.35
76448;BME280;65284;51.040;13.722;2023-03-01T07:15:16;101230.25;;;-4.23;80.18
76448;BME280;65284;51.040;13.722;2023-03-01T07:17:42;101228.44;;;-4.21;80.34
76448;BME280;65284;51.040;13.722;2023-03-01T07:20:11;101228.22;;;-4.12;80.29
76448;BME280;65284;51.040;13.722;2023-03-01T07:22:40;101221.28;;;-4.09;79.93
76448;BME280;65284;51.040;13.722;2023-03-01T07:25:07;101220.28;;;-4.04;79.89
76448;BME280;65284;51.040;13.722;2023-03-01T07:27:34;101222.59;;;-3.93;79.89
76448;BME280;65284;51.040;13.722;2023-03-01T07:30:00;101218.28;;;-3.94;79.54
76448;BME280;65284;51.040;13.722;2023-03-01T07:32:27;101211.16;;;-3.53;81.43
76448;BME280;65284;51.040;13.722;2023-03-01T07:34:53;101217.03;;;-3.79;79.33
76448;BME280;65284;51.040;13.722;2023-03-01T07:37:19;101212.84;;;-3.85;80.01
76448;BME280;65284;51.040;13.722;2023-03-01T07:39:46;101220.41;;;-3.76;80.01
76448;BME280;65284;51.040;13.722;2023-03-01T07:42:12;101210.72;;;-3.69;79.99
76448;BME280;65284;51.040;13.722;2023-03-01T07:44:39;101206.22;;;-3.62;79.47
76448;BME280;65284;51.040;13.722;2023-03-01T07:47:05;101204.34;;;-3.57;79.00
76448;BME280;65284;51.040;13.722;2023-03-01T07:49:31;101208.63;;;-3.55;79.57
76448;BME280;65284;51.040;13.722;2023-03-01T07:51:58;101212.69;;;-3.46;79.35
76448;BME280;65284;51.040;13.722;2023-03-01T07:54:24;101207.34;;;-3.40;80.03
76448;BME280;65284;51.040;13.722;2023-03-01T07:56:53;101209.41;;;-3.22;79.75
76448;BME280;65284;51.040;13.722;2023-03-01T07:59:20;101201.56;;;-3.20;79.68
76448;BME280;65284;51.040;13.722;2023-03-01T08:01:47;101198.03;;;-3.17;78.35
76448;BME280;65284;51.040;13.722;2023-03-01T08:04:13;101196.16;;;-3.12;78.61
76448;BME280;65284;51.040;13.722;2023-03-01T08:06:40;101183.25;;;-3.15;79.15
76448;BME280;65284;51.040;13.722;2023-03-01T08:09:06;101184.00;;;-3.10;79.03
76448;BME280;65284;51.040;13.722;2023-03-01T08:11:34;101177.72;;;-3.05;78.70
76448;BME280;65284;51.040;13.722;2023-03-01T08:14:03;101181.47;;;-2.84;77.81
76448;BME280;65284;51.040;13.722;2023-03-01T08:16:30;101169.53;;;-2.91;78.39
76448;BME280;65284;51.040;13.722;2023-03-01T08:18:57;101173.03;;;-2.92;79.13
76448;BME280;65284;51.040;13.722;2023-03-01T08:21:26;101173.66;;;-2.84;78.87
76448;BME280;65284;51.040;13.722;2023-03-01T08:23:53;101174.53;;;-2.85;78.89
76448;BME280;65284;51.040;13.722;2023-03-01T08:26:20;101170.88;;;-2.78;79.92
76448;BME280;65284;51.040;13.722;2023-03-01T08:28:48;101169.91;;;-2.47;79.41
76448;BME280;65284;51.040;13.722;2023-03-01T08:33:47;101163.22;;;-2.54;77.97
76448;BME280;65284;51.040;13.722;2023-03-01T08:36:22;101169.34;;;-2.57;77.97
76448;BME280;65284;51.040;13.722;2023-03-01T08:38:49;101177.50;;;-2.41;77.90
76448;BME280;65284;51.040;13.722;2023-03-01T08:41:16;101173.13;;;-2.39;78.83
76448;BME280;65284;51.040;13.722;2023-03-01T08:43:42;101163.31;;;-2.31;78.22
76448;BME280;65284;51.040;13.722;2023-03-01T08:46:09;101168.34;;;-2.26;77.91
76448;BME280;65284;51.040;13.722;2023-03-01T08:48:35;101162.72;;;-2.39;78.10
76448;BME280;65284;51.040;13.722;2023-03-01T08:51:16;101163.41;;;-2.34;77.97
76448;BME280;65284;51.040;13.722;2023-03-01T08:53:44;101160.19;;;-2.15;76.65
76448;BME280;65284;51.040;13.722;2023-03-01T08:56:11;101158.66;;;-2.21;77.89
76448;BME280;65284;51.040;13.722;2023-03-01T08:58:46;101162.19;;;-2.23;78.27
76448;BME280;65284;51.040;13.722;2023-03-01T09:01:15;101162.00;;;-2.17;76.92
76448;BME280;65284;51.040;13.722;2023-03-01T09:03:42;101162.81;;;-2.15;77.18
76448;BME280;65284;51.040;13.722;2023-03-01T09:06:09;101160.19;;;-2.15;77.67
76448;BME280;65284;51.040;13.722;2023-03-01T09:08:37;101163.38;;;-2.07;76.86
76448;BME280;65284;51.040;13.722;2023-03-01T09:11:06;101156.91;;;-1.95;76.97
76448;BME280;65284;51.040;13.722;2023-03-01T09:13:33;101150.94;;;-1.99;76.51
76448;BME280;65284;51.040;13.722;2023-03-01T09:16:04;101144.47;;;-1.87;75.60
76448;BME280;65284;51.040;13.722;2023-03-01T09:18:32;101143.41;;;-1.81;75.63
76448;BME280;65284;51.040;13.722;2023-03-01T09:21:03;101135.59;;;-1.81;76.48
76448;BME280;65284;51.040;13.722;2023-03-01T09:23:37;101137.25;;;-1.79;76.35
76448;BME280;65284;51.040;13.722;2023-03-01T09:26:19;101130.75;;;-1.67;76.16
76448;BME280;65284;51.040;13.722;2023-03-01T09:28:49;101130.84;;;-1.70;76.07
76448;BME280;65284;51.040;13.722;2023-03-01T09:31:17;101116.94;;;-1.69;76.00
76448;BME280;65284;51.040;13.722;2023-03-01T09:33:46;101109.69;;;-1.61;75.57
76448;BME280;65284;51.040;13.722;2023-03-01T09:36:17;101115.59;;;-1.56;75.35
76448;BME280;65284;51.040;13.722;2023-03-01T09:38:44;101112.63;;;-1.47;75.71
76448;BME280;65284;51.040;13.722;2023-03-01T09:43:49;101120.22;;;-1.17;77.42
76448;BME280;65284;51.040;13.722;2023-03-01T09:46:23;101124.47;;;-1.15;74.56
76448;BME280;65284;51.040;13.722;2023-03-01T09:48:56;101123.19;;;-1.04;74.22
76448;BME280;65284;51.040;13.722;2023-03-01T09:51:29;101123.13;;;-1.03;74.46
76448;BME280;65284;51.040;13.722;2023-03-01T09:53:57;101116.09;;;-1.01;74.95
76448;BME280;65284;51.040;13.722;2023-03-01T09:56:34;101115.75;;;-0.92;73.64
76448;BME280;65284;51.040;13.722;2023-03-01T10:01:57;101116.34;;;-0.85;74.15
76448;BME280;65284;51.040;13.722;2023-03-01T10:09:41;101112.19;;;-0.47;73.22
76448;BME280;65284;51.040;13.722;2023-03-01T10:12:17;101119.09;;;-0.46;73.31
76448;BME280;65284;51.040;13.722;2023-03-01T10:14:53;101115.81;;;-0.51;72.17
76448;BME280;65284;51.040;13.722;2023-03-01T10:17:30;101114.72;;;-0.45;72.34
76448;BME280;65284;51.040;13.722;2023-03-01T10:20:15;101118.00;;;-0.40;72.46
76448;BME280;65284;51.040;13.722;2023-03-01T10:22:42;101112.84;;;-0.41;72.32
76448;BME280;65284;51.040;13.722;2023-03-01T10:25:14;101115.00;;;-0.31;72.44
76448;BME280;65284;51.040;13.722;2023-03-01T10:30:21;101107.75;;;-0.24;72.32
76448;BME280;65284;51.040;13.722;2023-03-01T10:32:52;101110.97;;;-0.17;72.21
76448;BME280;65284;51.040;13.722;2023-03-01T10:35:27;101101.44;;;-0.18;71.59
76448;BME280;65284;51.040;13.722;2023-03-01T10:38:05;101097.06;;;-0.18;71.64
76448;BME280;65284;51.040;13.722;2023-03-01T10:40:33;101103.47;;;-0.05;71.08
76448;BME280;65284;51.040;13.722;2023-03-01T10:43:03;101093.69;;;0.01;70.71
76448;BME280;65284;51.040;13.722;2023-03-01T10:50:34;101081.06;;;0.29;71.27
76448;BME280;65284;51.040;13.722;2023-03-01T10:53:04;101079.09;;;0.34;70.71
76448;BME280;65284;51.040;13.722;2023-03-01T10:55:37;101074.03;;;0.31;70.02
76448;BME280;65284;51.040;13.722;2023-03-01T10:58:17;101069.72;;;0.30;69.98
76448;BME280;65284;51.040;13.722;2023-03-01T11:00:51;101067.81;;;0.34;70.27
76448;BME280;65284;51.040;13.722;2023-03-01T11:03:22;101066.69;;;0.39;69.45
76448;BME280;65284;51.040;13.722;2023-03-01T11:06:01;101061.19;;;0.45;69.01
76448;BME280;65284;51.040;13.722;2023-03-01T11:08:36;101054.28;;;0.44;69.11
76448;BME280;65284;51.040;13.722;2023-03-01T11:11:13;101057.34;;;0.53;69.17
76448;BME280;65284;51.040;13.722;2023-03-01T11:14:00;101046.06;;;0.52;69.50
76448;BME280;65284;51.040;13.722;2023-03-01T11:16:37;101042.97;;;0.63;69.70
76448;BME280;65284;51.040;13.722;2023-03-01T11:21:39;101033.75;;;0.73;70.06
76448;BME280;65284;51.040;13.722;2023-03-01T11:24:11;101036.50;;;1.06;68.57
76448;BME280;65284;51.040;13.722;2023-03-01T11:26:41;101039.53;;;1.16;66.86
76448;BME280;65284;51.040;13.722;2023-03-01T11:31:57;101037.84;;;1.67;63.78
76448;BME280;65284;51.040;13.722;2023-03-01T11:37:12;101035.69;;;1.75;63.33
76448;BME280;65284;51.040;13.722;2023-03-01T11:39:59;101036.06;;;1.68;63.28
76448;BME280;65284;51.040;13.722;2023-03-01T11:44:59;101029.06;;;1.68;63.03
76448;BME280;65284;51.040;13.722;2023-03-01T11:50:34;101034.84;;;1.75;62.63
76448;BME280;65284;51.040;13.722;2023-03-01T11:53:09;101039.03;;;1.77;60.75
76448;BME280;65284;51.040;13.722;2023-03-01T11:55:49;101032.13;;;1.76;60.24
76448;BME280;65284;51.040;13.722;2023-03-01T12:07:05;101012.91;;;1.93;60.61
76448;BME280;65284;51.040;13.722;2023-03-01T12:15:52;101006.31;;;2.19;57.32
76448;BME280;65284;51.040;13.722;2023-03-01T12:18:39;101005.19;;;2.23;56.26
76448;BME280;65284;51.040;13.722;2023-03-01T12:24:11;100990.81;;;2.15;56.92
76448;BME280;65284;51.040;13.722;2023-03-01T12:29:30;100983.38;;;2.23;56.83
76448;BME280;65284;51.040;13.722;2023-03-01T12:45:53;100970.69;;;2.15;58.60
76448;BME280;65284;51.040;13.722;2023-03-01T12:48:31;100968.25;;;2.28;57.40
76448;BME280;65284;51.040;13.722;2023-03-01T12:51:06;100968.84;;;2.17;59.06
76448;BME280;65284;51.040;13.722;2023-03-01T12:53:43;100966.66;;;2.25;60.35
76448;BME280;65284;51.040;13.722;2023-03-01T12:56:13;100967.50;;;2.26;58.79
76448;BME280;65284;51.040;13.722;2023-03-01T13:04:12;100953.44;;;2.27;58.07
76448;BME280;65284;51.040;13.722;2023-03-01T13:12:04;100960.72;;;2.38;58.66
76448;BME280;65284;51.040;13.722;2023-03-01T13:14:53;100950.91;;;2.41;59.40
76448;BME280;65284;51.040;13.722;2023-03-01T13:17:32;100951.75;;;2.42;59.42
76448;BME280;65284;51.040;13.722;2023-03-01T13:19:58;100946.09;;;2.34;60.80
76448;BME280;65284;51.040;13.722;2023-03-01T13:22:29;100948.41;;;2.40;59.58
76448;BME280;65284;51.040;13.722;2023-03-01T13:25:13;100953.63;;;2.40;60.31
76448;BME280;65284;51.040;13.722;2023-03-01T13:27:40;100951.75;;;2.42;59.64
76448;BME280;65284;51.040;13.722;2023-03-01T13:35:55;100958.88;;;2.40;59.74
76448;BME280;65284;51.040;13.722;2023-03-01T13:38:48;100958.38;;;2.49;59.07
76448;BME280;65284;51.040;13.722;2023-03-01T13:41:48;100949.88;;;2.60;57.56
76448;BME280;65284;51.040;13.722;2023-03-01T13:44:27;100939.72;;;2.69;56.52
76448;BME280;65284;51.040;13.722;2023-03-01T13:46:59;100944.63;;;2.76;56.79
76448;BME280;65284;51.040;13.722;2023-03-01T13:49:42;100945.19;;;2.81;56.60
76448;BME280;65284;51.040;13.722;2023-03-01T13:54:50;100935.69;;;2.94;55.74
76448;BME280;65284;51.040;13.722;2023-03-01T13:57:33;100941.16;;;3.05;55.97
76448;BME280;65284;51.040;13.722;2023-03-01T14:00:00;100944.47;;;3.23;56.17
76448;BME280;65284;51.040;13.722;2023-03-01T14:02:28;100933.97;;;3.23;55.21
76448;BME280;65284;51.040;13.722;2023-03-01T14:04:59;100929.38;;;3.27;55.89
76448;BME280;65284;51.040;13.722;2023-03-01T14:07:26;100930.31;;;3.40;55.89
76448;BME280;65284;51.040;13.722;2023-03-01T14:10:00;100919.63;;;3.43;55.34
76448;BME280;65284;51.040;13.722;2023-03-01T14:12:43;100917.97;;;3.56;55.12
76448;BME280;65284;51.040;13.722;2023-03-01T14:18:19;100920.31;;;3.75;55.05
76448;BME280;65284;51.040;13.722;2023-03-01T14:20:48;100919.09;;;3.81;55.67
76448;BME280;65284;51.040;13.722;2023-03-01T14:23:21;100905.09;;;3.95;54.59
76448;BME280;65284;51.040;13.722;2023-03-01T14:25:50;100902.34;;;3.96;54.61
76448;BME280;65284;51.040;13.722;2023-03-01T14:28:20;100900.59;;;3.97;54.62
76448;BME280;65284;51.040;13.722;2023-03-01T14:30:50;100900.94;;;4.05;54.35